Airport Name : Sheremetyevo

Other Name : Sheremetyevo

ICAO : UUEE

IATA : SVO

FAA :

Latitude : 55.972642

Longitude : 37.414589

Country : Russia

Local Date and Time : 1/17/2019 6:46:00 PM

 

TAF (Terminal Aerodrome Forecast)

TAF AMD UUEE 171540Z 1715/1815 18008G13MPS 1500 SN OVC011 TX01/1800Z TNM04/1715Z TEMPO 1715/1721 20011G18MPS 1000 SHSN BLSN FEW007 BKN011CB PROB40 TEMPO 1715/1721 FZDZ OVC005 TEMPO 1721/1804 20009G15MPS BKN004 BECMG 1804/1806 6000 NSW

 

METAR (METeorological Aerodrome Report)

UUEE 171530Z 19007G13MPS 1300 1200NE R24C/P2000D SN BLSN OVC010 M03/M04 Q0995 R24C/490336 TEMPO 1200 SHSN BLSN BKN011CB

UUEE 171500Z 18007G13MPS 1600 1400NE R24L/P2000U R24C/P2000U SN BLSN OVC009 M03/M04 Q0995 R24L/590336 R24C/490336 TEMPO 1200 SHSN BLSN BKN011CB

UUEE 171430Z 18007MPS 1800 R24L/P2000U SN BLSN OVC008 M03/M04 Q0995 R24L/590336 TEMPO 1200 SHSN BLSN BKN011CB

UUEE 171400Z 18007G13MPS 1500 R24L/1500D R24C/1500D SN BLSN OVC009 M03/M04 Q0996 R24L/590340 R24C/590336 TEMPO 1200 SHSN BLSN BKN011CB

UUEE 171330Z 19007MPS 1800 R24L/1700D R24C/1700D SN BLSN OVC010 M03/M04 Q0996 R24L/590340 R24C/590336 TEMPO 1200 SHSN BLSN BKN011CB

UUEE 171300Z 19007MPS 2000 R24L/1900D R24C/1900D SHSN BLSN SCT010 BKN030CB M04/M05 Q0997 R24L/590340 R24C/590336 TEMPO 1200 SHSN BLSN BKN011CB

UUEE 171230Z 18006MPS 1800 R24L/1800D SHSN BLSN SCT010 BKN030CB M04/M05 Q0997 R24L/590340 TEMPO 1200 SHSN BLSN BKN011CB

UUEE 171200Z 18007MPS 3300 -SHSN BLSN SCT012 BKN030CB M04/M05 Q0997 R24C/590336 NOSIG